Time;durP1;ratioP1;P1;durP2;ratioP2;P2;SDS_P1;SDS_P2;PMS_P1;PMS_P2;Temp;Humidity;BMP_temperature;BMP_pressure;BME280_temperature;BME280_humidity;BME280_pressure;Samples;Min_cycle;Max_cycle;Signal;HPM_P1;HPM_P2
2022/04/03 00:00:34;;;;;;;4.70;2.63;;;4.10;99.90;;;;;;5076338;28;20807;-66
2022/04/03 00:03:01;;;;;;;4.53;2.97;;;4.10;99.90;;;;;;5076492;28;20779;-66
2022/04/03 00:05:27;;;;;;;5.03;2.40;;;4.10;99.90;;;;;;5076276;28;20829;-66
2022/04/03 00:07:54;;;;;;;5.23;2.30;;;4.00;99.90;;;;;;5076341;28;20435;-67
2022/04/03 00:10:21;;;;;;;4.77;2.63;;;4.10;99.90;;;;;;5076216;28;20209;-66
2022/04/03 00:12:47;;;;;;;3.47;2.53;;;4.10;99.90;;;;;;5076248;28;20430;-66
2022/04/03 00:15:17;;;;;;;3.90;2.53;;;4.10;99.90;;;;;;5076067;28;20547;-66
2022/04/03 00:17:43;;;;;;;4.30;2.60;;;4.10;99.90;;;;;;5075901;28;20414;-66
2022/04/03 00:20:10;;;;;;;6.30;2.97;;;4.10;99.90;;;;;;5076002;28;20463;-66
2022/04/03 00:22:36;;;;;;;3.77;2.27;;;4.00;99.90;;;;;;5076134;28;20473;-66
2022/04/03 00:25:03;;;;;;;4.53;2.50;;;4.00;99.90;;;;;;5076036;28;20427;-66
2022/04/03 00:27:28;;;;;;;3.93;2.60;;;4.00;99.90;;;;;;5075796;28;20766;-66
2022/04/03 00:29:54;;;;;;;4.10;2.43;;;3.90;99.90;;;;;;5075813;28;20432;-66
2022/04/03 00:32:20;;;;;;;5.33;2.67;;;4.00;99.90;;;;;;5075937;28;20183;-66
2022/04/03 00:34:47;;;;;;;5.13;3.10;;;3.80;99.90;;;;;;5075750;28;20939;-66
2022/04/03 00:37:13;;;;;;;4.70;2.40;;;3.80;99.90;;;;;;5075696;28;20175;-65
2022/04/03 00:39:39;;;;;;;4.37;2.80;;;3.90;99.90;;;;;;5075743;28;20978;-66
2022/04/03 00:42:09;;;;;;;4.33;2.40;;;3.80;99.90;;;;;;5075660;28;20961;-66
2022/04/03 00:44:37;;;;;;;3.60;2.57;;;3.90;99.90;;;;;;5074620;28;20941;-66
2022/04/03 00:47:03;;;;;;;4.30;2.70;;;3.90;99.90;;;;;;5075457;28;21031;-66
2022/04/03 00:49:30;;;;;;;5.13;2.37;;;3.80;99.90;;;;;;5075661;28;20776;-65
2022/04/03 00:51:57;;;;;;;4.40;2.87;;;3.80;99.90;;;;;;5075436;28;20433;-66
2022/04/03 00:54:22;;;;;;;3.87;2.87;;;3.70;99.90;;;;;;5075489;28;20409;-65
2022/04/03 00:56:49;;;;;;;4.50;2.70;;;3.70;99.90;;;;;;5075126;28;20580;-66
2022/04/03 00:59:15;;;;;;;3.60;2.10;;;3.70;99.90;;;;;;5075256;28;20173;-66
2022/04/03 01:01:45;;;;;;;4.63;2.83;;;3.70;99.90;;;;;;5075244;28;20437;-66
2022/04/03 01:04:11;;;;;;;4.00;2.27;;;3.80;99.90;;;;;;5075258;28;20423;-66
2022/04/03 01:06:37;;;;;;;4.50;2.73;;;3.70;99.90;;;;;;5074996;28;20427;-66
2022/04/03 01:09:04;;;;;;;6.00;2.60;;;3.70;99.90;;;;;;5075264;28;20488;-66
2022/04/03 01:11:30;;;;;;;4.90;2.33;;;3.70;99.90;;;;;;5074940;28;20946;-66
2022/04/03 01:13:57;;;;;;;3.50;2.30;;;3.70;99.90;;;;;;5074993;28;20416;-67
2022/04/03 01:16:23;;;;;;;3.07;1.83;;;3.80;99.90;;;;;;5074797;28;20475;-66
2022/04/03 01:18:49;;;;;;;5.17;2.50;;;3.80;99.90;;;;;;5074936;28;20415;-66
2022/04/03 01:21:16;;;;;;;5.00;2.73;;;3.90;99.90;;;;;;5074824;28;20432;-65
2022/04/03 01:23:42;;;;;;;4.53;2.63;;;3.90;99.90;;;;;;5074946;28;20500;-66
2022/04/03 01:26:08;;;;;;;4.67;2.70;;;3.80;99.90;;;;;;5074708;28;20421;-65
2022/04/03 01:28:38;;;;;;;4.13;2.93;;;3.80;99.90;;;;;;5074637;28;20423;-66
2022/04/03 01:31:04;;;;;;;3.80;2.60;;;3.70;99.90;;;;;;5074757;28;20295;-65
2022/04/03 01:33:30;;;;;;;7.70;3.50;;;3.70;99.90;;;;;;5074737;28;20544;-66
2022/04/03 01:35:56;;;;;;;4.80;2.70;;;3.70;99.90;;;;;;5074518;28;20217;-65
2022/04/03 01:38:21;;;;;;;4.20;2.20;;;3.80;99.90;;;;;;5074431;28;20173;-66
2022/04/03 01:40:47;;;;;;;5.00;2.50;;;3.80;99.90;;;;;;5074374;28;20289;-66
2022/04/03 01:43:13;;;;;;;5.67;2.93;;;3.70;99.90;;;;;;5074461;28;20180;-67
2022/04/03 01:45:40;;;;;;;4.00;2.67;;;3.80;99.90;;;;;;5074296;28;20200;-66
2022/04/03 01:48:08;;;;;;;4.10;2.77;;;3.80;99.90;;;;;;5074249;28;20181;-66
2022/04/03 01:50:33;;;;;;;4.80;2.63;;;3.90;99.90;;;;;;5074205;28;20475;-66
2022/04/03 01:52:59;;;;;;;5.23;2.60;;;3.80;99.90;;;;;;5074426;28;20430;-67
2022/04/03 01:55:28;;;;;;;3.47;2.03;;;3.80;99.90;;;;;;5073967;28;20466;-66
2022/04/03 01:57:54;;;;;;;4.73;3.00;;;3.80;99.90;;;;;;5073995;28;20419;-66
2022/04/03 02:00:21;;;;;;;4.53;2.97;;;3.80;99.90;;;;;;5074064;28;20812;-66
2022/04/03 02:02:47;;;;;;;5.23;2.90;;;3.80;99.90;;;;;;5074223;28;20254;-66
2022/04/03 02:05:12;;;;;;;4.50;2.87;;;3.90;99.90;;;;;;5074101;28;20947;-66
2022/04/03 02:07:39;;;;;;;4.60;2.93;;;3.90;99.90;;;;;;5074016;28;20421;-66
2022/04/03 02:10:09;;;;;;;4.10;2.43;;;3.80;99.90;;;;;;5073950;28;20186;-66
2022/04/03 02:12:36;;;;;;;3.80;2.57;;;3.80;99.90;;;;;;5074058;28;20423;-66
2022/04/03 02:15:05;;;;;;;4.50;2.63;;;3.70;99.90;;;;;;5073902;28;20455;-66
2022/04/03 02:17:34;;;;;;;5.10;2.60;;;3.60;99.90;;;;;;5073783;28;20422;-66
2022/04/03 02:20:00;;;;;;;7.53;3.13;;;3.50;99.90;;;;;;5073821;28;20417;-65
2022/04/03 02:22:26;;;;;;;3.93;2.27;;;3.50;99.90;;;;;;5074039;28;20734;-65
2022/04/03 02:24:52;;;;;;;4.73;2.80;;;3.50;99.90;;;;;;5073803;28;20601;-66
2022/04/03 02:27:18;;;;;;;4.00;2.67;;;3.50;99.90;;;;;;5073703;28;20521;-66
2022/04/03 02:29:43;;;;;;;4.67;2.80;;;3.40;99.90;;;;;;5073970;28;20642;-65
2022/04/03 02:32:09;;;;;;;4.03;2.70;;;3.30;99.90;;;;;;5073797;28;20292;-66
2022/04/03 02:34:35;;;;;;;4.60;2.73;;;3.20;99.90;;;;;;5073876;28;20264;-66
2022/04/03 02:37:01;;;;;;;4.93;2.60;;;3.20;99.90;;;;;;5073473;28;20181;-66
2022/04/03 02:39:27;;;;;;;3.80;2.70;;;3.10;99.90;;;;;;5073685;28;20170;-66
2022/04/03 02:41:52;;;;;;;6.53;3.30;;;3.10;99.90;;;;;;5073583;28;20432;-65
2022/04/03 02:44:18;;;;;;;3.50;2.57;;;3.10;99.90;;;;;;5073857;28;20182;-65
2022/04/03 02:46:44;;;;;;;6.23;2.70;;;3.10;99.90;;;;;;5073385;28;20336;-66
2022/04/03 02:49:10;;;;;;;5.73;3.33;;;3.00;99.90;;;;;;5073747;28;20510;-66
2022/04/03 02:51:36;;;;;;;5.00;2.70;;;3.00;99.90;;;;;;5073537;28;20437;-66
2022/04/03 02:54:02;;;;;;;4.40;2.57;;;2.90;99.90;;;;;;5073525;28;20191;-66
2022/04/03 02:56:28;;;;;;;5.17;3.47;;;2.90;99.90;;;;;;5073408;28;20453;-65
2022/04/03 02:58:55;;;;;;;3.93;2.67;;;2.80;99.90;;;;;;5073730;28;20503;-66
2022/04/03 03:01:21;;;;;;;5.23;3.00;;;2.70;99.90;;;;;;5073463;28;20446;-65
2022/04/03 03:03:47;;;;;;;5.40;3.20;;;2.80;99.90;;;;;;5073638;28;20732;-65
2022/04/03 03:06:14;;;;;;;6.00;3.37;;;2.80;99.90;;;;;;5073414;28;20425;-65
2022/04/03 03:08:41;;;;;;;5.67;2.63;;;2.80;99.90;;;;;;5075600;28;20567;-66
2022/04/03 03:11:07;;;;;;;4.23;2.90;;;2.80;99.90;;;;;;5077336;28;20446;-65
2022/04/03 03:13:33;;;;;;;4.93;3.60;;;2.80;99.90;;;;;;5077428;28;20446;-65
2022/04/03 03:15:59;;;;;;;5.90;3.40;;;2.80;99.90;;;;;;5077205;28;20466;-65
2022/04/03 03:18:25;;;;;;;4.30;2.80;;;2.70;99.90;;;;;;5077126;28;20413;-65
2022/04/03 03:20:54;;;;;;;4.73;3.00;;;2.80;99.90;;;;;;5077155;28;20208;-65
2022/04/03 03:23:20;;;;;;;5.97;3.97;;;2.80;99.90;;;;;;5077130;28;20416;-65
2022/04/03 03:25:45;;;;;;;4.80;3.30;;;2.80;99.90;;;;;;5077211;28;20418;-66
2022/04/03 03:28:12;;;;;;;5.80;3.73;;;2.70;99.90;;;;;;5076897;28;20649;-66
2022/04/03 03:30:38;;;;;;;4.57;3.43;;;2.50;99.90;;;;;;5077046;28;20212;-66
2022/04/03 03:33:05;;;;;;;5.27;3.13;;;2.60;99.90;;;;;;5076970;28;20416;-66
2022/04/03 03:35:31;;;;;;;5.53;3.17;;;2.50;99.90;;;;;;5076917;28;20452;-66
2022/04/03 03:37:57;;;;;;;5.70;3.33;;;2.40;99.90;;;;;;5076557;28;20410;-66
2022/04/03 03:40:23;;;;;;;5.57;3.50;;;2.30;99.90;;;;;;5076857;28;20456;-65
2022/04/03 03:42:49;;;;;;;7.87;4.07;;;2.30;99.90;;;;;;5076767;28;20182;-66
2022/04/03 03:45:16;;;;;;;5.50;3.50;;;2.20;99.90;;;;;;5076734;28;20190;-66
2022/04/03 03:47:46;;;;;;;4.60;3.40;;;2.20;99.90;;;;;;5076542;28;20456;-65
2022/04/03 03:50:14;;;;;;;7.17;3.33;;;2.10;99.90;;;;;;5076564;28;20509;-65
2022/04/03 03:52:41;;;;;;;7.20;2.97;;;2.10;99.90;;;;;;5076655;28;20472;-65
2022/04/03 03:55:08;;;;;;;5.70;2.73;;;2.00;99.90;;;;;;5076711;28;20990;-65
2022/04/03 03:57:33;;;;;;;6.20;3.27;;;2.00;99.90;;;;;;5076398;28;20785;-65
2022/04/03 03:59:59;;;;;;;6.30;2.70;;;2.00;99.90;;;;;;5076439;28;20412;-65
2022/04/03 04:02:25;;;;;;;5.07;3.47;;;2.00;99.90;;;;;;5076471;28;20697;-66
2022/04/03 04:04:51;;;;;;;7.63;3.43;;;2.00;99.90;;;;;;5076446;28;20680;-65
2022/04/03 04:07:16;;;;;;;5.33;2.83;;;2.00;99.90;;;;;;5076123;28;20540;-66
2022/04/03 04:09:42;;;;;;;3.10;2.30;;;2.00;99.90;;;;;;5076472;28;20176;-67
2022/04/03 04:12:09;;;;;;;3.80;2.57;;;2.00;99.90;;;;;;5076104;28;20738;-67
2022/04/03 04:14:36;;;;;;;6.17;3.67;;;1.90;99.90;;;;;;5076367;28;20424;-67
2022/04/03 04:17:03;;;;;;;7.90;3.10;;;2.00;99.90;;;;;;5075904;28;20544;-67
2022/04/03 04:19:29;;;;;;;3.43;2.70;;;1.90;99.90;;;;;;5074738;28;20418;-65
2022/04/03 04:21:56;;;;;;;6.00;3.20;;;1.90;99.90;;;;;;5076044;28;20430;-65
2022/04/03 04:24:22;;;;;;;5.47;3.17;;;1.90;99.90;;;;;;5076182;28;20455;-66
2022/04/03 04:26:48;;;;;;;6.73;3.67;;;1.80;99.90;;;;;;5075820;28;20435;-66
2022/04/03 04:29:14;;;;;;;16.33;2.70;;;1.90;99.90;;;;;;5076032;28;20512;-66
2022/04/03 04:31:39;;;;;;;5.17;3.27;;;1.90;99.90;;;;;;5075911;28;20230;-65
2022/04/03 04:34:05;;;;;;;4.70;2.87;;;1.90;99.90;;;;;;5075926;28;20269;-65
2022/04/03 04:36:31;;;;;;;5.07;2.93;;;1.90;99.90;;;;;;5075601;28;20233;-65
2022/04/03 04:38:57;;;;;;;3.70;2.63;;;1.90;99.90;;;;;;5075697;28;20640;-65
2022/04/03 04:41:23;;;;;;;6.57;2.83;;;1.90;99.90;;;;;;5076057;28;20198;-66
2022/04/03 04:43:49;;;;;;;5.30;2.60;;;1.90;99.90;;;;;;5075719;28;20418;-65
2022/04/03 04:46:15;;;;;;;6.13;2.80;;;1.90;99.90;;;;;;5075588;22;20547;-69
2022/04/03 04:48:41;;;;;;;4.40;3.10;;;1.90;99.90;;;;;;5052335;28;20183;-69
2022/04/03 04:51:06;;;;;;;4.50;2.97;;;1.90;99.90;;;;;;5052678;28;20208;-69
2022/04/03 04:53:32;;;;;;;5.97;3.00;;;1.80;99.90;;;;;;5052764;28;20172;-69
2022/04/03 04:55:58;;;;;;;4.67;2.80;;;1.80;99.90;;;;;;5052395;28;20204;-69
2022/04/03 04:58:24;;;;;;;6.40;3.10;;;1.70;99.90;;;;;;5052421;28;20184;-69
2022/04/03 05:00:50;;;;;;;5.83;2.70;;;1.70;99.90;;;;;;5052656;28;20229;-69
2022/04/03 05:03:15;;;;;;;5.43;2.73;;;1.70;99.90;;;;;;5052213;28;20418;-69
2022/04/03 05:05:41;;;;;;;5.70;2.83;;;1.60;99.90;;;;;;5052451;28;20184;-69
2022/04/03 05:08:07;;;;;;;5.83;2.60;;;1.50;99.90;;;;;;5052107;28;20275;-69
2022/04/03 05:10:33;;;;;;;8.03;3.53;;;1.50;99.90;;;;;;5052484;28;20195;-69
2022/04/03 05:13:01;;;;;;;3.80;2.70;;;1.40;99.90;;;;;;5052432;28;20807;-69
2022/04/03 05:15:29;;;;;;;3.40;2.77;;;1.40;99.90;;;;;;5052672;28;20204;-69
2022/04/03 05:17:55;;;;;;;4.03;2.73;;;1.40;99.90;;;;;;5052191;28;20425;-69
2022/04/03 05:20:21;;;;;;;5.10;2.77;;;1.40;99.90;;;;;;5052252;28;20792;-69
2022/04/03 05:22:48;;;;;;;6.27;3.20;;;1.40;99.90;;;;;;5052103;28;20429;-68
2022/04/03 05:25:13;;;;;;;4.97;3.20;;;1.30;99.90;;;;;;5052320;28;20188;-68
2022/04/03 05:27:41;;;;;;;5.63;2.87;;;1.30;99.90;;;;;;5052121;28;20472;-68
2022/04/03 05:30:08;;;;;;;4.20;2.87;;;1.30;99.90;;;;;;5052408;28;20603;-69
2022/04/03 05:32:36;;;;;;;5.50;3.40;;;1.20;99.90;;;;;;5052294;28;20791;-68
2022/04/03 05:35:03;;;;;;;6.33;3.20;;;1.20;99.90;;;;;;5052674;28;20458;-68
2022/04/03 05:37:29;;;;;;;4.27;2.40;;;1.20;99.90;;;;;;5052163;28;20786;-68
2022/04/03 05:39:55;;;;;;;3.70;2.70;;;1.30;99.90;;;;;;5052380;28;20988;-69
2022/04/03 05:42:22;;;;;;;4.60;3.07;;;1.30;99.90;;;;;;5052682;28;20464;-69
2022/04/03 05:44:48;;;;;;;5.13;3.00;;;1.30;99.90;;;;;;5052111;28;20414;-69
2022/04/03 05:47:17;;;;;;;4.97;3.30;;;1.30;99.90;;;;;;5051650;28;20434;-68
2022/04/03 05:49:44;;;;;;;3.80;2.83;;;1.30;99.90;;;;;;5052189;28;20472;-68
2022/04/03 05:52:10;;;;;;;5.37;3.50;;;1.30;99.90;;;;;;5052248;28;20441;-68
2022/04/03 05:54:36;;;;;;;4.30;3.50;;;1.30;99.90;;;;;;5052212;28;20414;-69
2022/04/03 05:57:03;;;;;;;4.77;3.20;;;1.30;99.90;;;;;;5051922;28;20462;-69
2022/04/03 05:59:29;;;;;;;4.50;3.10;;;1.30;99.90;;;;;;5051698;28;20834;-69
2022/04/03 06:01:55;;;;;;;5.83;3.00;;;1.40;99.90;;;;;;5052170;28;20434;-69
2022/04/03 06:04:20;;;;;;;5.77;3.50;;;1.30;99.90;;;;;;5052198;28;20413;-69
2022/04/03 06:06:46;;;;;;;4.87;3.50;;;1.30;99.90;;;;;;5051765;28;20528;-68
2022/04/03 06:09:12;;;;;;;5.03;3.27;;;1.40;99.90;;;;;;5052069;28;20220;-69
2022/04/03 06:11:38;;;;;;;3.80;2.80;;;1.40;99.90;;;;;;5052058;28;20199;-68
2022/04/03 06:14:04;;;;;;;4.23;3.20;;;1.40;99.90;;;;;;5051778;28;20414;-68
2022/04/03 06:16:29;;;;;;;6.03;3.50;;;1.30;99.90;;;;;;5051804;28;20218;-69
2022/04/03 06:18:55;;;;;;;4.37;3.10;;;1.30;99.90;;;;;;5051901;28;20716;-68
2022/04/03 06:21:21;;;;;;;5.37;2.80;;;1.30;99.90;;;;;;5054477;28;20609;-69
2022/04/03 06:23:47;;;;;;;6.17;3.23;;;1.20;99.90;;;;;;5052496;28;20211;-68
2022/04/03 06:26:13;;;;;;;5.80;2.80;;;1.20;99.90;;;;;;5052525;28;20425;-69
2022/04/03 06:28:39;;;;;;;6.87;2.93;;;1.20;99.90;;;;;;5051615;28;20922;-69
2022/04/03 06:31:05;;;;;;;4.20;3.03;;;1.30;99.90;;;;;;5051988;28;20202;-69
2022/04/03 06:33:31;;;;;;;4.60;2.97;;;1.40;99.90;;;;;;5051839;28;20180;-68
2022/04/03 06:35:57;;;;;;;5.00;2.60;;;1.30;99.90;;;;;;5052244;28;20805;-69
2022/04/03 06:38:23;;;;;;;4.67;2.90;;;1.30;99.90;;;;;;5051673;28;20414;-69
2022/04/03 06:40:52;;;;;;;5.93;3.20;;;1.20;99.90;;;;;;5051942;28;20495;-69
2022/04/03 06:43:22;;;;;;;5.10;3.50;;;1.30;99.90;;;;;;5050656;28;20546;-69
2022/04/03 06:45:49;;;;;;;6.10;4.30;;;1.30;99.90;;;;;;5051695;28;20644;-69
2022/04/03 06:48:15;;;;;;;6.90;3.23;;;1.50;99.90;;;;;;5051293;28;20442;-69
2022/04/03 06:50:41;;;;;;;4.63;3.00;;;1.50;99.90;;;;;;5051437;28;20442;-69
2022/04/03 06:53:07;;;;;;;5.77;3.60;;;1.60;99.90;;;;;;5051243;28;20506;-68
2022/04/03 06:55:33;;;;;;;4.70;2.60;;;1.80;99.90;;;;;;5051164;28;20537;-69
2022/04/03 06:57:59;;;;;;;5.90;3.07;;;1.90;99.90;;;;;;5051023;28;20176;-69
2022/04/03 07:00:25;;;;;;;3.63;2.40;;;1.90;99.90;;;;;;5050958;28;20526;-69
2022/04/03 07:02:51;;;;;;;5.10;3.37;;;1.90;99.90;;;;;;5051449;28;20472;-68
2022/04/03 07:05:18;;;;;;;5.57;3.70;;;1.90;99.90;;;;;;5051232;28;20411;-69
2022/04/03 07:07:44;;;;;;;4.37;3.47;;;1.90;99.90;;;;;;5051274;28;20180;-69
2022/04/03 07:10:10;;;;;;;8.30;3.57;;;2.00;99.90;;;;;;5050424;28;20509;-68
2022/04/03 07:12:39;;;;;;;4.30;3.17;;;2.00;99.90;;;;;;5050833;28;20411;-68
2022/04/03 07:15:08;;;;;;;8.93;3.63;;;2.10;99.90;;;;;;5051082;28;21003;-69
2022/04/03 07:17:35;;;;;;;4.60;3.50;;;2.20;99.90;;;;;;5050589;28;20414;-69
2022/04/03 07:20:00;;;;;;;6.10;3.40;;;2.20;99.90;;;;;;5050381;28;20940;-68
2022/04/03 07:22:26;;;;;;;5.67;3.70;;;2.30;99.90;;;;;;5050715;28;20412;-68
2022/04/03 07:24:52;;;;;;;6.10;3.60;;;2.40;99.90;;;;;;5050673;28;20788;-68
2022/04/03 07:27:18;;;;;;;7.07;3.37;;;2.50;99.90;;;;;;5050386;28;20181;-69
2022/04/03 07:29:46;;;;;;;4.80;3.60;;;2.60;99.90;;;;;;5050575;28;20181;-69
2022/04/03 07:32:12;;;;;;;9.37;4.07;;;2.80;99.90;;;;;;5050635;28;20204;-69
2022/04/03 07:34:38;;;;;;;5.30;3.30;;;2.90;99.90;;;;;;5050261;28;20420;-69
2022/04/03 07:37:04;;;;;;;5.90;3.37;;;3.00;99.90;;;;;;5050366;28;20293;-69
2022/04/03 07:39:32;;;;;;;6.10;3.80;;;3.20;99.90;;;;;;5050106;28;20182;-69
2022/04/03 07:41:59;;;;;;;5.33;2.90;;;3.40;99.90;;;;;;5050132;28;20207;-69
2022/04/03 07:44:25;;;;;;;5.40;3.40;;;3.50;99.90;;;;;;5050222;28;20416;-69
2022/04/03 07:46:51;;;;;;;5.30;3.73;;;3.60;99.90;;;;;;5050049;28;20491;-69
2022/04/03 07:49:16;;;;;;;5.37;3.60;;;3.70;99.90;;;;;;5050271;28;20416;-69
2022/04/03 07:51:42;;;;;;;4.70;3.40;;;3.80;99.90;;;;;;5050108;28;20290;-69
2022/04/03 07:54:08;;;;;;;4.60;3.67;;;3.90;99.90;;;;;;5050962;28;20539;-69
2022/04/03 07:56:35;;;;;;;4.57;3.33;;;3.90;99.90;;;;;;5053458;28;20214;-69
2022/04/03 07:59:03;;;;;;;7.27;2.90;;;4.10;99.90;;;;;;5053670;28;20603;-69
2022/04/03 08:01:29;;;;;;;9.10;3.63;;;4.20;99.90;;;;;;5053930;28;21051;-69
2022/04/03 08:03:55;;;;;;;5.53;3.80;;;4.40;99.90;;;;;;5053500;28;20422;-69
2022/04/03 08:06:21;;;;;;;6.53;4.10;;;4.60;99.90;;;;;;5053464;28;20998;-69
2022/04/03 08:08:46;;;;;;;6.00;3.13;;;4.70;99.90;;;;;;5053482;28;20683;-69
2022/04/03 08:11:12;;;;;;;7.03;4.13;;;4.90;99.90;;;;;;5053564;28;20594;-69
2022/04/03 08:13:38;;;;;;;5.40;3.10;;;5.10;99.90;;;;;;5053580;28;20191;-69
2022/04/03 08:16:04;;;;;;;5.83;3.27;;;5.20;99.90;;;;;;5053340;28;20457;-69
2022/04/03 08:18:30;;;;;;;4.40;2.70;;;5.30;99.90;;;;;;5053334;28;20180;-69
2022/04/03 08:20:55;;;;;;;4.60;3.13;;;5.30;99.90;;;;;;5053275;28;20438;-69
2022/04/03 08:23:21;;;;;;;7.00;3.63;;;5.30;99.90;;;;;;5053421;28;20266;-69
2022/04/03 08:25:48;;;;;;;4.60;2.90;;;5.30;99.90;;;;;;5053611;28;20238;-69
2022/04/03 08:28:16;;;;;;;6.23;3.40;;;5.30;99.90;;;;;;5053060;28;20674;-69
2022/04/03 08:30:42;;;;;;;4.70;2.80;;;5.40;99.90;;;;;;5053215;28;20446;-69
2022/04/03 08:33:09;;;;;;;5.07;3.47;;;5.50;99.90;;;;;;5053487;28;20452;-69
2022/04/03 08:35:40;;;;;;;5.93;3.70;;;5.60;99.90;;;;;;5053321;28;20470;-69
2022/04/03 08:38:07;;;;;;;5.90;3.30;;;5.70;99.90;;;;;;5053142;28;20783;-69
2022/04/03 08:40:34;;;;;;;4.87;3.10;;;5.80;99.90;;;;;;5052960;28;20441;-69
2022/04/03 08:43:02;;;;;;;5.60;3.50;;;5.90;99.90;;;;;;5053537;28;20411;-69
2022/04/03 08:45:28;;;;;;;6.80;3.80;;;6.00;99.90;;;;;;5052830;28;20418;-69
2022/04/03 08:47:56;;;;;;;4.80;3.83;;;6.10;99.90;;;;;;5052638;28;20514;-69
2022/04/03 08:50:27;;;;;;;5.97;3.67;;;6.20;99.90;;;;;;5052986;28;20499;-69
2022/04/03 08:52:54;;;;;;;6.33;3.60;;;6.30;99.90;;;;;;5053117;28;20423;-69
2022/04/03 08:55:21;;;;;;;5.43;3.60;;;6.40;99.90;;;;;;5053171;28;20450;-69
2022/04/03 08:57:48;;;;;;;7.47;3.37;;;6.60;99.90;;;;;;5053076;28;20416;-69
2022/04/03 09:00:14;;;;;;;4.17;3.03;;;6.50;99.90;;;;;;5053000;28;20792;-69
2022/04/03 09:02:41;;;;;;;5.83;2.93;;;6.50;99.90;;;;;;5053196;28;20828;-69
2022/04/03 09:05:09;;;;;;;5.23;3.43;;;6.60;99.90;;;;;;5052731;28;20413;-70
2022/04/03 09:07:35;;;;;;;5.10;3.00;;;6.80;99.90;;;;;;5052770;28;20416;-69
2022/04/03 09:10:10;;;;;;;6.03;3.33;;;7.00;99.90;;;;;;5053141;28;20440;-69
2022/04/03 09:12:43;;;;;;;4.53;3.00;;;7.80;99.90;;;;;;5052784;28;20437;-69
2022/04/03 09:15:14;;;;;;;5.43;3.00;;;9.50;99.90;;;;;;5053299;28;20556;-70
2022/04/03 09:17:45;;;;;;;5.60;3.67;;;11.50;98.40;;;;;;5052835;28;20418;-70
2022/04/03 09:20:19;;;;;;;4.93;3.10;;;12.60;89.70;;;;;;5052529;28;20410;-70
2022/04/03 09:22:51;;;;;;;4.70;2.43;;;14.50;77.90;;;;;;5052472;28;20484;-69
2022/04/03 09:25:24;;;;;;;4.73;3.00;;;16.50;66.80;;;;;;5052043;28;20925;-68
2022/04/03 09:27:52;;;;;;;3.90;2.60;;;19.00;58.70;;;;;;5051911;28;20787;-68
2022/04/03 09:30:20;;;;;;;4.70;3.10;;;19.80;46.30;;;;;;5051719;28;20953;-69
2022/04/03 09:32:57;;;;;;;3.50;2.50;;;16.50;39.80;;;;;;5052191;28;21196;-69
2022/04/03 09:35:31;;;;;;;4.73;2.60;;;14.30;41.50;;;;;;5051801;28;20626;-69
2022/04/03 09:38:09;;;;;;;6.13;3.40;;;12.60;43.90;;;;;;5052277;28;20472;-69
2022/04/03 09:40:38;;;;;;;4.80;2.90;;;11.00;45.10;;;;;;5052484;28;20450;-69
2022/04/03 09:43:27;;;;;;;3.60;2.80;;;10.80;48.30;;;;;;5052206;28;20410;-69
2022/04/03 09:45:58;;;;;;;4.10;2.57;;;10.80;48.80;;;;;;5051854;28;20446;-69
2022/04/03 09:48:34;;;;;;;3.80;2.60;;;10.40;50.00;;;;;;5051128;28;20777;-69
2022/04/03 09:51:08;;;;;;;5.80;2.73;;;9.50;52.40;;;;;;5051064;28;20468;-69
2022/04/03 09:53:48;;;;;;;3.27;2.30;;;9.00;54.40;;;;;;5051138;28;20410;-69
2022/04/03 09:56:21;;;;;;;3.47;2.67;;;9.00;55.40;;;;;;5050980;28;20469;-69
2022/04/03 09:58:50;;;;;;;4.80;3.00;;;9.30;55.90;;;;;;5050885;28;20421;-68
2022/04/03 10:01:34;;;;;;;4.57;3.40;;;9.50;55.50;;;;;;5050728;28;20511;-68
2022/04/03 10:04:27;;;;;;;6.30;4.50;;;9.50;57.10;;;;;;5050943;28;20414;-69
2022/04/03 10:06:54;;;;;;;4.27;3.53;;;10.10;55.30;;;;;;5049508;28;20425;-68
2022/04/03 10:09:20;;;;;;;3.93;3.13;;;12.50;52.20;;;;;;5050838;28;20418;-69
2022/04/03 10:11:46;;;;;;;4.90;3.00;;;13.70;47.60;;;;;;5050701;28;20453;-69
2022/04/03 10:14:12;;;;;;;3.80;3.00;;;14.90;47.10;;;;;;5050791;28;20853;-69
2022/04/03 10:16:38;;;;;;;5.33;3.43;;;17.50;44.70;;;;;;5050235;28;20512;-69
2022/04/03 10:19:04;;;;;;;3.73;3.00;;;19.20;41.00;;;;;;5050796;28;20176;-68
2022/04/03 10:21:53;;;;;;;4.50;2.90;;;18.60;37.20;;;;;;5050506;28;20440;-68
2022/04/03 10:24:24;;;;;;;3.63;3.27;;;18.30;37.20;;;;;;5050716;28;20180;-68
2022/04/03 10:26:59;;;;;;;4.83;2.63;;;17.40;35.50;;;;;;5050375;28;20517;-68
2022/04/03 10:29:30;;;;;;;3.60;2.03;;;18.10;36.50;;;;;;5050605;28;20441;-68
2022/04/03 10:32:00;;;;;;;3.03;1.87;;;17.60;34.30;;;;;;5050512;28;20450;-68
2022/04/03 10:34:27;;;;;;;3.43;1.70;;;17.60;34.70;;;;;;5050466;28;20429;-69
2022/04/03 10:36:56;;;;;;;3.50;1.80;;;16.80;34.50;;;;;;5050106;28;20844;-69
2022/04/03 10:39:27;;;;;;;3.70;2.30;;;16.10;35.30;;;;;;5050476;28;20409;-68
2022/04/03 10:42:32;;;;;;;4.43;1.80;;;16.40;36.30;;;;;;5050361;28;20792;-68
2022/04/03 10:45:18;;;;;;;2.87;1.53;;;16.70;36.60;;;;;;5032482;28;20513;-69
2022/04/03 10:47:46;;;;;;;4.30;2.10;;;17.20;36.00;;;;;;5054675;22;20584;-65
2022/04/03 10:50:12;;;;;;;4.50;2.00;;;16.50;36.20;;;;;;5050278;28;20417;-64
2022/04/03 10:52:38;;;;;;;6.20;2.10;;;14.70;36.60;;;;;;5050336;28;20808;-64
2022/04/03 10:55:22;;;;;;;3.27;2.00;;;14.20;38.40;;;;;;5050217;28;20490;-64
2022/04/03 10:57:49;;;;;;;3.03;1.87;;;14.10;38.90;;;;;;5050089;28;20555;-64
2022/04/03 11:00:28;;;;;;;3.53;1.80;;;13.20;38.30;;;;;;5050164;28;20511;-65
2022/04/03 11:02:57;;;;;;;3.17;1.87;;;13.50;40.80;;;;;;5050202;28;20525;-65
2022/04/03 11:05:29;;;;;;;3.60;2.07;;;14.00;41.10;;;;;;5050203;28;20438;-64
2022/04/03 11:08:18;;;;;;;3.00;1.73;;;14.50;40.40;;;;;;5049961;28;20520;-64
2022/04/03 11:10:57;;;;;;;3.17;2.23;;;15.30;39.60;;;;;;5050097;28;20545;-65
2022/04/03 11:13:37;;;;;;;2.80;1.90;;;16.60;39.30;;;;;;5050047;28;20579;-64
2022/04/03 11:16:09;;;;;;;2.90;1.80;;;16.10;37.60;;;;;;5049993;28;20477;-64
2022/04/03 11:18:53;;;;;;;2.90;1.90;;;16.10;40.20;;;;;;5050179;28;21074;-64
2022/04/03 11:21:25;;;;;;;3.17;1.90;;;16.00;37.70;;;;;;5049947;28;20464;-64
2022/04/03 11:24:11;;;;;;;4.13;1.90;;;15.90;38.30;;;;;;5050064;28;20418;-65
2022/04/03 11:26:38;;;;;;;3.33;1.80;;;15.10;37.90;;;;;;5049621;28;20429;-64
2022/04/03 11:29:06;;;;;;;2.70;1.70;;;15.00;38.40;;;;;;5049758;28;20607;-64
2022/04/03 11:31:38;;;;;;;3.33;1.87;;;14.20;38.50;;;;;;5035652;28;20469;-64
2022/04/03 11:34:06;;;;;;;3.20;1.83;;;13.80;38.40;;;;;;5042580;28;20473;-64
2022/04/03 11:36:33;;;;;;;2.90;1.63;;;14.00;38.80;;;;;;5049859;28;20946;-64
2022/04/03 11:39:00;;;;;;;2.80;1.53;;;13.90;38.20;;;;;;5045086;28;20445;-65
2022/04/03 11:41:31;;;;;;;2.90;1.60;;;14.30;38.10;;;;;;5043165;28;20438;-65
2022/04/03 11:44:10;;;;;;;3.20;1.80;;;14.80;38.20;;;;;;5053543;28;20892;-65
2022/04/03 11:46:38;;;;;;;2.90;2.00;;;14.90;38.40;;;;;;5045287;28;20769;-64
2022/04/03 11:49:12;;;;;;;2.60;1.47;;;16.20;40.30;;;;;;5045855;28;20795;-65
2022/04/03 11:51:38;;;;;;;2.80;1.67;;;19.40;40.10;;;;;;5033457;28;20823;-65
2022/04/03 11:54:03;;;;;;;3.50;1.90;;;20.20;35.10;;;;;;5033464;28;20433;-65
2022/04/03 11:56:34;;;;;;;4.80;1.73;;;21.60;36.10;;;;;;5033129;28;20467;-65
2022/04/03 11:59:00;;;;;;;3.30;1.97;;;22.90;34.10;;;;;;5033446;28;20180;-66
2022/04/03 12:01:28;;;;;;;3.60;1.73;;;23.30;33.30;;;;;;5033246;28;21040;-66
2022/04/03 12:04:08;;;;;;;2.40;1.30;;;24.40;32.50;;;;;;5033273;28;20451;-65
2022/04/03 12:06:39;;;;;;;2.97;1.70;;;25.00;31.70;;;;;;5033099;28;20846;-65
2022/04/03 12:09:16;;;;;;;2.70;1.50;;;24.10;30.10;;;;;;5047036;28;20820;-65
2022/04/03 12:11:51;;;;;;;2.80;1.20;;;22.00;29.90;;;;;;5041095;28;20439;-64
2022/04/03 12:14:30;;;;;;;3.67;1.77;;;20.40;31.40;;;;;;5050732;28;20486;-64
2022/04/03 12:17:07;;;;;;;3.77;1.43;;;20.20;30.70;;;;;;5052432;28;20470;-65
2022/04/03 12:19:44;;;;;;;4.10;1.80;;;19.70;31.90;;;;;;5049316;28;20427;-64
2022/04/03 12:22:13;;;;;;;2.87;1.50;;;19.80;32.60;;;;;;5049481;28;20450;-65
2022/04/03 12:24:39;;;;;;;2.50;1.40;;;20.60;33.20;;;;;;5052810;28;20509;-64
2022/04/03 12:27:14;;;;;;;2.97;1.60;;;21.40;32.70;;;;;;5052156;28;20425;-65
2022/04/03 12:29:48;;;;;;;2.80;1.57;;;22.30;32.80;;;;;;5052788;28;20414;-65
2022/04/03 12:32:23;;;;;;;2.40;1.57;;;23.10;31.00;;;;;;5052730;28;20979;-65
2022/04/03 12:34:50;;;;;;;2.60;1.30;;;23.50;30.20;;;;;;5052592;28;20414;-65
2022/04/03 12:37:17;;;;;;;2.87;1.70;;;24.40;30.40;;;;;;5052140;28;20496;-64
2022/04/03 12:39:48;;;;;;;2.70;1.47;;;24.70;30.00;;;;;;5052300;28;20632;-64
2022/04/03 12:42:42;;;;;;;2.97;1.93;;;22.70;29.20;;;;;;5051538;28;20438;-64
2022/04/03 12:45:16;;;;;;;2.93;1.67;;;19.20;29.70;;;;;;5052549;28;20802;-64
2022/04/03 12:47:56;;;;;;;2.70;1.60;;;17.50;31.50;;;;;;5051904;28;20932;-64
2022/04/03 12:50:41;;;;;;;2.40;1.40;;;16.80;33.50;;;;;;5052366;28;20437;-65
2022/04/03 12:53:14;;;;;;;2.90;1.60;;;16.40;33.90;;;;;;5052531;28;20425;-65
2022/04/03 12:55:48;;;;;;;3.20;1.67;;;16.20;35.80;;;;;;5052186;28;20466;-64
2022/04/03 12:58:33;;;;;;;2.40;1.30;;;17.70;36.20;;;;;;5051955;28;20833;-65
2022/04/03 13:01:15;;;;;;;3.00;1.80;;;18.50;35.20;;;;;;5052172;28;20895;-64